Terminal Aerodrome Forecast
Issued by NWS

Home | Current Version | Previous Version | Text Only | Print | Product List | Glossary On
Versions: 1 2 3 4 5 6 7 8 9 10 11 12 13 14 15 16 17 18
505
FTUS43 KPAH 270520
TAFCGI
TAF
KCGI 270520Z 2706/2806 26004KT P6SM FEW250
     FM271300 31006KT P6SM SKC
     FM271700 31011G18KT P6SM SKC
     FM280100 24004KT P6SM SKC=

USA.gov is the U.S. government's official web portal to all federal, state and local government web resources and services.